createdAt,value
2018-05-10T00:01:31.831Z,9.30
2018-05-10T00:04:00.891Z,9.00
2018-05-10T00:06:28.551Z,8.27
2018-05-10T00:08:56.128Z,8.87
2018-05-10T00:11:23.828Z,8.27
2018-05-10T00:13:52.174Z,8.00
2018-05-10T00:16:19.728Z,8.53
2018-05-10T00:18:47.420Z,8.80
2018-05-10T00:21:14.982Z,9.00
2018-05-10T00:23:42.595Z,8.10
2018-05-10T00:26:10.175Z,9.07
2018-05-10T00:28:37.764Z,9.90
2018-05-10T00:31:06.118Z,9.50
2018-05-10T00:33:33.697Z,9.00
2018-05-10T00:36:01.515Z,8.50
2018-05-10T00:38:29.095Z,8.77
2018-05-10T00:40:56.685Z,8.50
2018-05-10T00:43:25.064Z,9.33
2018-05-10T00:45:53.419Z,8.57
2018-05-10T00:48:21.072Z,9.43
2018-05-10T00:50:48.667Z,9.57
2018-05-10T00:53:17.149Z,9.77
2018-05-10T00:55:45.467Z,9.10
2018-05-10T00:58:13.022Z,8.50
2018-05-10T01:00:40.627Z,9.40
2018-05-10T01:03:11.015Z,9.63
2018-05-10T01:05:38.615Z,9.10
2018-05-10T01:08:06.220Z,9.30
2018-05-10T01:10:33.792Z,9.57
2018-05-10T01:13:01.339Z,9.40
2018-05-10T01:15:28.946Z,10.40
2018-05-10T01:17:57.311Z,9.93
2018-05-10T01:20:25.073Z,10.17
2018-05-10T01:22:52.673Z,10.00
2018-05-10T01:25:21.065Z,9.97
2018-05-10T01:27:49.411Z,11.30
2018-05-10T01:30:17.857Z,9.13
2018-05-10T01:32:45.424Z,9.67
2018-05-10T01:35:24.886Z,9.80
2018-05-10T01:37:52.463Z,10.10
2018-05-10T01:40:20.014Z,8.73
2018-05-10T01:42:47.583Z,8.50
2018-05-10T01:45:15.204Z,9.00
2018-05-10T01:47:42.767Z,9.40
2018-05-10T01:50:10.356Z,9.00
2018-05-10T01:52:37.995Z,8.47
2018-05-10T01:55:05.555Z,8.73
2018-05-10T01:57:33.168Z,8.93
2018-05-10T02:00:00.738Z,10.00
2018-05-10T02:02:28.312Z,10.13
2018-05-10T02:04:55.898Z,12.43
2018-05-10T02:07:23.467Z,11.90
2018-05-10T02:09:51.047Z,10.83
2018-05-10T02:12:18.611Z,12.30
2018-05-10T02:14:47.120Z,11.70
2018-05-10T02:17:14.631Z,11.10
2018-05-10T02:19:42.278Z,10.70
2018-05-10T02:22:09.895Z,11.63
2018-05-10T02:24:37.466Z,10.87
2018-05-10T02:27:05.066Z,11.40
2018-05-10T02:29:32.694Z,11.87
2018-05-10T02:32:00.253Z,12.07
2018-05-10T02:34:27.831Z,10.70
2018-05-10T02:36:55.391Z,10.67
2018-05-10T02:39:23.066Z,10.80
2018-05-10T02:41:52.159Z,10.40
2018-05-10T02:44:19.819Z,11.13
2018-05-10T02:46:47.445Z,11.23
2018-05-10T02:49:15.005Z,11.93
2018-05-10T02:51:42.588Z,11.97
2018-05-10T02:54:10.196Z,12.40
2018-05-10T02:56:37.848Z,12.20
2018-05-10T02:59:06.230Z,13.93
2018-05-10T03:01:34.563Z,11.27
2018-05-10T03:04:02.147Z,11.13
2018-05-10T03:06:30.515Z,10.87
2018-05-10T03:08:58.110Z,11.40
2018-05-10T03:11:26.428Z,11.90
2018-05-10T03:13:54.055Z,11.80
2018-05-10T03:16:21.664Z,11.90
2018-05-10T03:18:49.223Z,10.50
2018-05-10T03:21:16.840Z,11.97
2018-05-10T03:23:44.407Z,12.07
2018-05-10T03:26:11.955Z,11.93
2018-05-10T03:28:40.319Z,12.53
2018-05-10T03:31:08.672Z,11.93
2018-05-10T03:33:36.223Z,13.40
2018-05-10T03:36:03.773Z,12.33
2018-05-10T03:38:31.445Z,13.03
2018-05-10T03:40:59.015Z,12.00
2018-05-10T03:43:26.599Z,13.93
2018-05-10T03:45:55.031Z,13.00
2018-05-10T03:48:22.616Z,12.97
2018-05-10T03:50:50.200Z,13.40
2018-05-10T03:53:18.560Z,13.07
2018-05-10T03:55:46.119Z,13.20
2018-05-10T03:58:13.696Z,13.40
2018-05-10T04:00:42.038Z,13.30
2018-05-10T04:06:16.750Z,13.43
2018-05-10T04:08:56.107Z,14.23
2018-05-10T04:11:30.527Z,15.03
2018-05-10T04:13:58.056Z,13.70
2018-05-10T04:16:26.415Z,13.13
2018-05-10T04:18:54.743Z,14.63
2018-05-10T04:21:22.300Z,12.47
2018-05-10T04:23:49.871Z,13.40
2018-05-10T04:26:17.524Z,14.53
2018-05-10T04:28:45.055Z,14.00
2018-05-10T04:31:13.372Z,15.67
2018-05-10T04:33:40.952Z,14.33
2018-05-10T04:36:08.526Z,14.77
2018-05-10T04:38:36.070Z,13.50
2018-05-10T04:41:03.594Z,12.90
2018-05-10T04:43:31.157Z,14.00
2018-05-10T04:45:58.703Z,14.07
2018-05-10T04:48:26.254Z,12.90
2018-05-10T04:50:53.838Z,13.70
2018-05-10T04:53:21.367Z,14.13
2018-05-10T04:55:49.683Z,13.17
2018-05-10T04:58:17.217Z,14.87
2018-05-10T05:00:44.766Z,14.07
2018-05-10T05:03:12.335Z,13.53
2018-05-10T05:05:39.898Z,13.03
2018-05-10T05:08:07.476Z,14.57
2018-05-10T05:10:35.042Z,13.67
2018-05-10T05:13:02.623Z,14.37
2018-05-10T05:15:30.205Z,14.63
2018-05-10T05:17:57.760Z,13.73
2018-05-10T05:20:25.350Z,15.57
2018-05-10T05:22:52.907Z,14.00
2018-05-10T05:25:20.466Z,14.27
2018-05-10T05:27:48.032Z,14.50
2018-05-10T05:30:15.558Z,14.70
2018-05-10T05:32:43.116Z,15.30
2018-05-10T05:35:11.470Z,14.17
2018-05-10T05:37:39.016Z,13.40
2018-05-10T05:40:06.537Z,15.40
2018-05-10T05:42:34.851Z,13.60
2018-05-10T05:45:02.404Z,14.63
2018-05-10T05:47:29.934Z,13.43
2018-05-10T05:49:57.524Z,13.23
2018-05-10T05:52:25.083Z,13.30
2018-05-10T05:54:52.642Z,11.90
2018-05-10T05:57:20.193Z,12.33
2018-05-10T05:59:47.771Z,12.60
2018-05-10T06:02:15.324Z,11.47
2018-05-10T06:04:42.862Z,10.67
2018-05-10T06:07:11.182Z,9.60
2018-05-10T06:09:38.738Z,9.80
2018-05-10T06:12:06.298Z,9.17
2018-05-10T06:14:33.820Z,9.17
2018-05-10T06:17:01.387Z,7.87
2018-05-10T06:19:28.927Z,6.70
2018-05-10T06:21:57.243Z,7.80
2018-05-10T06:24:24.798Z,7.53
2018-05-10T06:26:52.328Z,8.50
2018-05-10T06:29:20.763Z,11.40
2018-05-10T06:31:48.316Z,9.70
2018-05-10T06:34:15.865Z,11.03
2018-05-10T06:36:43.411Z,10.80
2018-05-10T06:39:11.077Z,13.13
2018-05-10T06:41:38.607Z,12.13
2018-05-10T06:44:07.114Z,14.57
2018-05-10T06:46:34.639Z,13.40
2018-05-10T06:49:02.963Z,13.87
2018-05-10T06:51:30.608Z,14.27
2018-05-10T06:53:58.156Z,14.73
2018-05-10T06:56:25.731Z,13.20
2018-05-10T06:58:53.259Z,14.70
2018-05-10T07:01:21.542Z,16.00
2018-05-10T07:03:49.970Z,13.83
2018-05-10T07:06:17.544Z,12.77
2018-05-10T07:08:45.169Z,14.17
2018-05-10T07:11:12.714Z,13.77
2018-05-10T07:13:40.257Z,12.33
2018-05-10T07:16:08.572Z,14.03
2018-05-10T07:18:36.228Z,14.50
2018-05-10T07:21:03.783Z,14.77
2018-05-10T07:23:31.336Z,12.37
2018-05-10T07:25:58.900Z,12.73
2018-05-10T07:28:26.470Z,13.77
2018-05-10T07:30:54.001Z,14.23
2018-05-10T07:33:22.315Z,13.27
2018-05-10T07:35:49.855Z,12.80
2018-05-10T07:38:17.408Z,12.33
2018-05-10T07:40:44.930Z,13.60
2018-05-10T07:43:12.477Z,13.17
2018-05-10T07:45:40.000Z,12.73
2018-05-10T07:48:07.528Z,13.87
2018-05-10T07:50:35.834Z,13.77
2018-05-10T07:53:03.382Z,12.83
2018-05-10T07:55:30.906Z,12.70
2018-05-10T07:57:58.454Z,11.97
2018-05-10T08:00:26.016Z,12.00
2018-05-10T08:02:53.541Z,13.00
2018-05-10T08:05:21.089Z,11.83
2018-05-10T08:07:48.638Z,12.07
2018-05-10T08:10:16.188Z,11.87
2018-05-10T08:12:43.722Z,12.57
2018-05-10T08:15:11.308Z,12.07
2018-05-10T08:17:38.863Z,12.40
2018-05-10T08:20:06.390Z,12.43
2018-05-10T08:22:33.959Z,12.07
2018-05-10T08:25:01.515Z,11.73
2018-05-10T08:27:51.828Z,11.07
2018-05-10T08:30:20.237Z,10.93
2018-05-10T08:32:47.717Z,12.40
2018-05-10T08:35:15.265Z,13.33
2018-05-10T08:37:42.795Z,12.13
2018-05-10T08:40:10.323Z,21.57
2018-05-10T08:42:37.890Z,9.87
2018-05-10T08:45:06.269Z,10.03
2018-05-10T08:47:33.811Z,10.30
2018-05-10T08:50:01.345Z,10.10
2018-05-10T08:52:28.883Z,9.47
2018-05-10T08:54:56.439Z,10.50
2018-05-10T08:57:23.999Z,9.17
2018-05-10T08:59:51.624Z,9.57
2018-05-10T09:02:19.114Z,8.67
2018-05-10T09:04:46.695Z,8.40
2018-05-10T09:07:14.220Z,7.07
2018-05-10T09:09:42.496Z,5.33
2018-05-10T09:12:10.901Z,4.47
2018-05-10T09:14:38.419Z,3.80
2018-05-10T09:17:06.705Z,3.67
2018-05-10T09:19:35.007Z,3.20
2018-05-10T09:22:02.578Z,4.20
2018-05-10T09:24:30.143Z,3.00
2018-05-10T09:26:57.743Z,2.63
2018-05-10T09:29:25.278Z,2.93
2018-05-10T09:31:52.823Z,2.40
2018-05-10T09:34:20.366Z,3.00
2018-05-10T09:36:47.889Z,2.53
2018-05-10T09:39:16.219Z,3.00
2018-05-10T09:41:43.762Z,2.50
2018-05-10T09:44:11.279Z,2.57
2018-05-10T09:46:38.843Z,3.47
2018-05-10T09:49:07.158Z,6.40
2018-05-10T09:51:34.696Z,5.83
2018-05-10T09:54:02.978Z,3.30
2018-05-10T09:56:31.307Z,3.00
2018-05-10T09:58:58.982Z,3.40
2018-05-10T10:01:26.559Z,3.20
2018-05-10T10:03:54.138Z,2.70
2018-05-10T10:06:22.425Z,3.40
2018-05-10T10:08:50.707Z,3.00
2018-05-10T10:11:18.273Z,3.60
2018-05-10T10:13:45.845Z,3.67
2018-05-10T10:16:13.388Z,3.40
2018-05-10T10:18:40.906Z,4.93
2018-05-10T10:21:08.442Z,5.77
2018-05-10T10:23:35.982Z,5.23
2018-05-10T10:26:03.567Z,5.43
2018-05-10T10:28:31.130Z,5.70
2018-05-10T10:30:58.687Z,9.10
2018-05-10T10:33:26.222Z,19.50
2018-05-10T10:35:53.765Z,18.70
2018-05-10T10:38:21.287Z,17.97
2018-05-10T10:40:48.832Z,33.80
2018-05-10T10:43:16.375Z,49.37
2018-05-10T10:45:43.961Z,8.50
2018-05-10T10:48:11.494Z,10.53
2018-05-10T10:50:39.010Z,6.97
2018-05-10T10:53:07.325Z,7.57
2018-05-10T10:55:34.850Z,10.30
2018-05-10T10:58:02.409Z,11.70
2018-05-10T11:00:29.979Z,12.63
2018-05-10T11:02:57.531Z,9.03
2018-05-10T11:05:25.127Z,12.13
2018-05-10T11:07:52.691Z,12.63
2018-05-10T11:10:20.981Z,9.10
2018-05-10T11:12:48.518Z,8.13
2018-05-10T11:15:16.033Z,7.60
2018-05-10T11:17:44.362Z,6.83
2018-05-10T11:20:11.914Z,5.17
2018-05-10T11:22:39.584Z,5.90
2018-05-10T11:25:07.803Z,5.07
2018-05-10T11:27:36.178Z,3.47
2018-05-10T11:30:04.490Z,4.47
2018-05-10T11:32:32.720Z,4.40
2018-05-10T11:35:00.246Z,4.60
2018-05-10T11:37:27.811Z,5.00
2018-05-10T11:39:55.374Z,5.47
2018-05-10T11:42:22.915Z,6.03
2018-05-10T11:44:50.433Z,6.80
2018-05-10T11:47:18.761Z,7.27
2018-05-10T11:49:46.299Z,5.80
2018-05-10T11:52:13.831Z,6.40
2018-05-10T11:54:42.159Z,5.00
2018-05-10T11:57:09.675Z,14.10
2018-05-10T11:59:37.969Z,7.10
2018-05-10T12:02:05.513Z,5.70
2018-05-10T12:04:33.835Z,6.63
2018-05-10T12:07:01.416Z,5.47
2018-05-10T12:09:28.949Z,6.07
2018-05-10T12:11:56.604Z,10.80
2018-05-10T12:14:24.388Z,6.73
2018-05-10T12:16:51.906Z,6.93
2018-05-10T12:19:19.475Z,6.40
2018-05-10T12:21:47.026Z,7.20
2018-05-10T12:24:14.609Z,11.47
2018-05-10T12:26:42.191Z,6.70
2018-05-10T12:29:09.710Z,6.70
2018-05-10T12:31:37.283Z,8.03
2018-05-10T12:34:04.860Z,9.60
2018-05-10T12:36:32.381Z,9.23
2018-05-10T12:39:00.666Z,7.23
2018-05-10T12:41:28.199Z,8.70
2018-05-10T12:43:55.748Z,7.13
2018-05-10T12:46:23.318Z,6.80
2018-05-10T12:48:51.635Z,6.87
2018-05-10T12:51:19.301Z,6.53
2018-05-10T12:53:46.838Z,5.47
2018-05-10T12:56:14.463Z,4.93
2018-05-10T12:58:42.719Z,7.90
2018-05-10T13:01:10.242Z,5.90
2018-05-10T13:03:37.799Z,6.63
2018-05-10T13:06:05.392Z,5.50
2018-05-10T13:08:32.953Z,5.90
2018-05-10T13:11:00.512Z,5.20
2018-05-10T13:13:28.099Z,5.87
2018-05-10T13:15:55.732Z,5.73
2018-05-10T13:18:24.001Z,5.33
2018-05-10T13:20:51.600Z,6.53
2018-05-10T13:23:19.171Z,5.20
2018-05-10T13:25:47.471Z,6.03
2018-05-10T13:28:15.015Z,4.80
2018-05-10T13:30:43.420Z,6.13
2018-05-10T13:36:01.465Z,6.80
2018-05-10T13:38:29.052Z,7.33
2018-05-10T13:40:56.644Z,7.20
2018-05-10T13:43:24.166Z,6.07
2018-05-10T13:45:51.709Z,9.90
2018-05-10T13:48:19.237Z,8.03
2018-05-10T13:50:46.796Z,6.60
2018-05-10T13:53:14.376Z,7.00
2018-05-10T13:55:42.670Z,6.73
2018-05-10T13:58:10.185Z,6.07
2018-05-10T14:00:37.799Z,6.93
2018-05-10T14:03:05.341Z,7.33
2018-05-10T14:05:32.910Z,8.80
2018-05-10T14:08:00.479Z,7.40
2018-05-10T14:10:27.995Z,6.57
2018-05-10T14:12:55.517Z,6.10
2018-05-10T14:15:23.178Z,7.07
2018-05-10T14:17:50.842Z,9.37
2018-05-10T14:20:18.401Z,7.90
2018-05-10T14:22:45.972Z,6.70
2018-05-10T14:25:13.637Z,7.40
2018-05-10T14:27:41.220Z,7.10
2018-05-10T14:30:09.570Z,20.60
2018-05-10T14:32:37.131Z,9.27
2018-05-10T14:35:04.733Z,71.07
2018-05-10T14:37:32.315Z,57.23
2018-05-10T14:39:59.866Z,11.90
2018-05-10T14:42:27.409Z,8.03
2018-05-10T14:44:55.691Z,11.80
2018-05-10T14:47:23.264Z,8.50
2018-05-10T14:49:50.781Z,18.67
2018-05-10T14:52:18.322Z,9.57
2018-05-10T14:54:45.904Z,6.30
2018-05-10T14:57:13.421Z,8.13
2018-05-10T14:59:41.027Z,58.87
2018-05-10T15:02:08.536Z,94.03
2018-05-10T15:04:36.091Z,90.17
2018-05-10T15:07:03.678Z,83.30
2018-05-10T15:09:31.246Z,83.07
2018-05-10T15:11:58.808Z,79.63
2018-05-10T15:14:26.398Z,78.90
2018-05-10T15:16:54.742Z,73.37
2018-05-10T15:19:22.285Z,64.50
2018-05-10T15:21:49.864Z,60.73
2018-05-10T15:24:17.387Z,52.17
2018-05-10T15:26:44.933Z,54.27
2018-05-10T15:29:12.454Z,51.20
2018-05-10T15:31:40.019Z,49.07
2018-05-10T15:34:07.539Z,45.40
2018-05-10T15:36:35.112Z,50.90
2018-05-10T15:39:02.663Z,46.40
2018-05-10T15:41:30.226Z,42.70
2018-05-10T15:43:58.514Z,39.10
2018-05-10T15:46:26.091Z,40.53
2018-05-10T15:48:53.647Z,35.70
2018-05-10T15:51:21.208Z,37.27
2018-05-10T15:53:48.757Z,41.83
2018-05-10T15:56:16.304Z,36.30
2018-05-10T15:58:44.609Z,39.47
2018-05-10T16:01:12.158Z,37.90
2018-05-10T16:03:39.719Z,41.50
2018-05-10T16:06:07.282Z,39.33
2018-05-10T16:08:34.859Z,42.53
2018-05-10T16:11:02.421Z,37.00
2018-05-10T16:13:30.717Z,35.73
2018-05-10T16:15:58.284Z,37.77
2018-05-10T16:18:25.815Z,41.73
2018-05-10T16:20:54.264Z,41.80
2018-05-10T16:23:21.786Z,46.97
2018-05-10T16:25:49.402Z,47.57
2018-05-10T16:28:17.832Z,48.03
2018-05-10T16:30:45.426Z,46.70
2018-05-10T16:33:12.960Z,47.80
2018-05-10T16:35:40.556Z,48.00
2018-05-10T16:38:08.866Z,48.83
2018-05-10T16:40:37.161Z,46.93
2018-05-10T16:43:04.732Z,45.60
2018-05-10T16:45:32.291Z,50.23
2018-05-10T16:47:59.834Z,49.97
2018-05-10T16:50:27.354Z,50.33
2018-05-10T16:52:54.939Z,53.23
2018-05-10T16:55:23.278Z,45.00
2018-05-10T16:57:50.832Z,45.60
2018-05-10T17:00:18.373Z,48.33
2018-05-10T17:02:45.967Z,46.90
2018-05-10T17:05:13.524Z,43.87
2018-05-10T17:07:41.078Z,44.00
2018-05-10T17:10:08.714Z,48.30
2018-05-10T17:12:36.300Z,52.73
2018-05-10T17:15:03.884Z,45.30
2018-05-10T17:17:31.463Z,39.53
2018-05-10T17:19:59.030Z,41.40
2018-05-10T17:22:26.643Z,42.47
2018-05-10T17:24:54.232Z,43.63
2018-05-10T17:27:21.868Z,44.87
2018-05-10T17:29:49.406Z,37.40
2018-05-10T17:32:16.931Z,38.80
2018-05-10T17:34:44.483Z,30.73
2018-05-10T17:37:12.052Z,29.93
2018-05-10T17:39:39.623Z,28.73
2018-05-10T17:42:07.199Z,29.57
2018-05-10T17:44:34.790Z,27.73
2018-05-10T17:47:02.348Z,27.77
2018-05-10T17:49:29.911Z,26.10
2018-05-10T17:51:57.464Z,25.33
2018-05-10T17:54:25.016Z,24.67
2018-05-10T17:56:52.592Z,25.57
2018-05-10T17:59:20.155Z,25.03
2018-05-10T18:01:47.740Z,25.90
2018-05-10T18:04:15.369Z,24.07
2018-05-10T18:06:42.924Z,22.03
2018-05-10T18:09:10.507Z,21.80
2018-05-10T18:11:38.877Z,21.73
2018-05-10T18:14:06.422Z,18.00
2018-05-10T18:16:34.016Z,17.97
2018-05-10T18:19:02.346Z,17.20
2018-05-10T18:21:30.367Z,18.23
2018-05-10T18:23:58.758Z,17.63
2018-05-10T18:26:26.338Z,15.57
2018-05-10T18:28:54.695Z,17.20
2018-05-10T18:31:22.388Z,14.73
2018-05-10T18:33:50.019Z,14.10
2018-05-10T18:36:17.587Z,13.70
2018-05-10T18:38:45.166Z,15.00
2018-05-10T18:41:12.875Z,14.10
2018-05-10T18:43:41.299Z,12.70
2018-05-10T18:46:08.899Z,12.67
2018-05-10T18:48:36.635Z,13.30
2018-05-10T18:51:04.245Z,13.73
2018-05-10T18:53:32.595Z,12.53
2018-05-10T18:56:00.150Z,11.63
2018-05-10T18:58:27.833Z,13.77
2018-05-10T19:00:55.419Z,11.73
2018-05-10T19:03:23.762Z,12.33
2018-05-10T19:05:51.486Z,10.93
2018-05-10T19:08:19.085Z,11.40
2018-05-10T19:10:47.431Z,11.67
2018-05-10T19:13:14.993Z,10.07
2018-05-10T19:15:42.583Z,9.30
2018-05-10T19:18:10.134Z,10.23
2018-05-10T19:20:37.727Z,10.17
2018-05-10T19:23:06.077Z,9.80
2018-05-10T19:25:33.650Z,9.10
2018-05-10T19:28:01.200Z,8.73
2018-05-10T19:30:28.811Z,9.20
2018-05-10T19:32:56.384Z,8.83
2018-05-10T19:35:23.914Z,7.70
2018-05-10T19:37:51.519Z,9.00
2018-05-10T19:40:19.084Z,8.20
2018-05-10T19:42:46.698Z,8.70
2018-05-10T19:45:14.226Z,8.10
2018-05-10T19:47:41.819Z,8.17
2018-05-10T19:50:09.401Z,7.97
2018-05-10T19:52:36.944Z,8.30
2018-05-10T19:55:04.505Z,8.37
2018-05-10T19:57:34.406Z,7.70
2018-05-10T20:00:04.124Z,9.33
2018-05-10T20:02:32.120Z,8.50
2018-05-10T20:04:59.648Z,8.23
2018-05-10T20:07:28.435Z,7.87
2018-05-10T20:09:56.007Z,8.70
2018-05-10T20:12:23.631Z,9.57
2018-05-10T20:14:51.306Z,8.60
2018-05-10T20:23:02.014Z,9.40
2018-05-10T20:25:30.388Z,8.90
2018-05-10T20:27:57.926Z,9.50
2018-05-10T20:30:25.503Z,9.40
2018-05-10T20:32:53.868Z,8.93
2018-05-10T20:35:21.454Z,10.73
2018-05-10T20:37:49.052Z,10.00
2018-05-10T20:40:16.602Z,10.63
2018-05-10T20:42:44.127Z,9.23
2018-05-10T20:45:12.430Z,8.70
2018-05-10T20:47:39.983Z,10.27
2018-05-10T20:50:07.513Z,10.03
2018-05-10T20:52:35.060Z,9.73
2018-05-10T20:55:02.701Z,9.70
2018-05-10T20:57:30.236Z,9.43
2018-05-10T20:59:57.801Z,10.27
2018-05-10T21:02:25.409Z,9.40
2018-05-10T21:04:52.950Z,8.33
2018-05-10T21:07:20.525Z,8.27
2018-05-10T21:09:48.115Z,8.30
2018-05-10T21:12:27.751Z,8.13
2018-05-10T21:14:56.080Z,7.50
2018-05-10T21:17:23.715Z,7.67
2018-05-10T21:19:51.301Z,8.20
2018-05-10T21:22:18.826Z,8.77
2018-05-10T21:24:46.391Z,7.50
2018-05-10T21:27:13.933Z,7.00
2018-05-10T21:29:42.265Z,7.83
2018-05-10T21:32:09.801Z,8.77
2018-05-10T21:34:37.385Z,8.60
2018-05-10T21:37:04.989Z,8.70
2018-05-10T21:39:33.278Z,8.53
2018-05-10T21:42:00.859Z,8.53
2018-05-10T21:44:28.384Z,8.07
2018-05-10T21:46:56.687Z,7.83
2018-05-10T21:49:36.107Z,8.77
2018-05-10T21:52:03.682Z,7.50
2018-05-10T21:54:31.227Z,7.00
2018-05-10T21:56:58.785Z,8.53
2018-05-10T21:59:26.339Z,6.77
2018-05-10T22:01:54.626Z,7.50
2018-05-10T22:04:22.204Z,7.77
2018-05-10T22:06:49.774Z,7.70
2018-05-10T22:09:17.333Z,7.47
2018-05-10T22:11:44.912Z,7.27
2018-05-10T22:14:12.515Z,7.53
2018-05-10T22:16:40.050Z,7.47
2018-05-10T22:19:07.653Z,7.23
2018-05-10T22:21:35.230Z,7.77
2018-05-10T22:24:02.783Z,6.40
2018-05-10T22:26:30.339Z,7.60
2018-05-10T22:28:57.858Z,6.30
2018-05-10T22:31:25.407Z,7.30
2018-05-10T22:33:52.955Z,6.80
2018-05-10T22:36:20.506Z,7.57
2018-05-10T22:38:48.058Z,7.60
2018-05-10T22:41:15.611Z,7.83
2018-05-10T22:43:43.126Z,7.00
2018-05-10T22:46:11.480Z,7.40
2018-05-10T22:48:39.063Z,6.50
2018-05-10T22:51:07.422Z,7.43
2018-05-10T22:53:35.778Z,6.80
2018-05-10T22:56:03.354Z,7.53
2018-05-10T22:58:30.934Z,7.27
2018-05-10T23:00:59.246Z,7.10
2018-05-10T23:03:26.815Z,7.83
2018-05-10T23:05:54.389Z,7.57
2018-05-10T23:08:21.946Z,6.97
2018-05-10T23:10:49.504Z,7.40
2018-05-10T23:13:17.070Z,7.50
2018-05-10T23:15:44.646Z,6.50
2018-05-10T23:18:12.174Z,6.63
2018-05-10T23:20:39.708Z,7.63
2018-05-10T23:23:07.259Z,6.20
2018-05-10T23:25:35.598Z,6.07
2018-05-10T23:28:03.165Z,6.40
2018-05-10T23:30:30.711Z,6.63
2018-05-10T23:32:58.234Z,6.73
2018-05-10T23:35:25.959Z,6.83
2018-05-10T23:37:53.510Z,7.43
2018-05-10T23:40:21.101Z,7.80
2018-05-10T23:42:48.685Z,6.97
2018-05-10T23:45:16.246Z,7.70
2018-05-10T23:47:43.770Z,6.47
2018-05-10T23:50:12.042Z,6.30
2018-05-10T23:52:40.379Z,5.70
2018-05-10T23:55:07.938Z,7.40
2018-05-10T23:57:35.484Z,7.20
